createdAt,value
2022-12-28T00:01:13.710Z,5.65
2022-12-28T00:03:40.553Z,6.35
2022-12-28T00:06:07.309Z,5.40
2022-12-28T00:08:33.965Z,5.93
2022-12-28T00:11:08.870Z,6.70
2022-12-28T00:13:37.993Z,5.80
2022-12-28T00:16:35.129Z,6.80
2022-12-28T00:19:04.767Z,6.57
2022-12-28T00:21:31.859Z,6.40
2022-12-28T00:23:59.989Z,6.65
2022-12-28T00:26:29.146Z,6.25
2022-12-28T00:29:03.635Z,6.57
2022-12-28T00:31:32.404Z,6.82
2022-12-28T00:33:59.118Z,6.60
2022-12-28T00:37:08.885Z,7.32
2022-12-28T00:41:40.329Z,6.88
2022-12-28T00:44:07.278Z,7.82
2022-12-28T00:46:33.893Z,6.55
2022-12-28T00:49:00.540Z,6.80
2022-12-28T00:51:27.411Z,6.72
2022-12-28T00:53:54.075Z,6.78
2022-12-28T00:56:22.587Z,7.03
2022-12-28T00:58:50.005Z,7.35
2022-12-28T01:01:19.764Z,7.05
2022-12-28T01:03:47.012Z,6.93
2022-12-28T01:06:16.689Z,8.00
2022-12-28T01:08:43.969Z,7.68
2022-12-28T01:11:21.799Z,6.90
2022-12-28T01:13:49.642Z,7.82
2022-12-28T01:16:21.494Z,7.95
2022-12-28T01:18:49.371Z,7.65
2022-12-28T01:21:18.717Z,8.52
2022-12-28T01:23:47.103Z,8.38
2022-12-28T01:26:14.502Z,7.93
2022-12-28T01:28:41.136Z,7.47
2022-12-28T01:31:12.194Z,8.75
2022-12-28T01:33:39.690Z,8.25
2022-12-28T01:36:08.382Z,6.88
2022-12-28T01:38:39.289Z,7.30
2022-12-28T01:41:11.106Z,6.80
2022-12-28T01:43:43.252Z,6.75
2022-12-28T01:46:15.557Z,6.72
2022-12-28T01:48:49.735Z,6.93
2022-12-28T01:51:18.990Z,7.25
2022-12-28T01:53:47.063Z,8.52
2022-12-28T01:56:13.846Z,7.93
2022-12-28T01:58:40.746Z,8.18
2022-12-28T02:01:07.663Z,7.57
2022-12-28T02:03:35.459Z,7.32
2022-12-28T02:06:06.497Z,6.55
2022-12-28T02:08:51.962Z,7.20
2022-12-28T02:11:19.867Z,7.15
2022-12-28T02:13:48.921Z,7.00
2022-12-28T02:16:15.905Z,7.60
2022-12-28T02:18:44.929Z,8.57
2022-12-28T02:21:27.721Z,9.95
2022-12-28T02:24:29.544Z,10.85
2022-12-28T02:27:13.046Z,8.90
2022-12-28T02:29:56.025Z,8.32
2022-12-28T02:32:34.968Z,8.90
2022-12-28T02:35:19.672Z,8.60
2022-12-28T02:37:52.803Z,7.80
2022-12-28T02:40:28.197Z,8.13
2022-12-28T02:42:55.560Z,7.82
2022-12-28T02:45:47.479Z,8.43
2022-12-28T02:48:29.384Z,7.90
2022-12-28T02:51:14.883Z,7.55
2022-12-28T02:53:59.853Z,8.73
2022-12-28T02:56:46.379Z,8.90
2022-12-28T02:59:34.936Z,8.73
2022-12-28T03:02:29.544Z,8.23
2022-12-28T03:05:51.310Z,8.80
2022-12-28T03:08:27.297Z,7.38
2022-12-28T03:11:04.403Z,7.38
2022-12-28T03:13:48.203Z,8.07
2022-12-28T03:16:28.619Z,6.90
2022-12-28T03:19:17.661Z,6.65
2022-12-28T03:21:59.997Z,7.45
2022-12-28T03:24:44.618Z,6.97
2022-12-28T03:27:29.942Z,6.82
2022-12-28T03:30:19.216Z,7.68
2022-12-28T03:32:48.021Z,6.75
2022-12-28T03:35:17.190Z,7.20
2022-12-28T03:37:53.997Z,8.88
2022-12-28T03:40:49.565Z,8.00
2022-12-28T03:43:39.197Z,7.75
2022-12-28T03:46:14.376Z,8.30
2022-12-28T03:48:43.275Z,7.88
2022-12-28T03:51:12.105Z,8.25
2022-12-28T03:53:43.455Z,7.57
2022-12-28T03:56:13.620Z,7.25
2022-12-28T03:58:40.292Z,7.47
2022-12-28T04:01:07.237Z,6.18
2022-12-28T04:03:34.199Z,7.72
2022-12-28T04:06:01.165Z,7.15
2022-12-28T04:08:28.233Z,7.63
2022-12-28T04:10:55.522Z,7.97
2022-12-28T04:13:22.118Z,8.15
2022-12-28T04:16:05.369Z,7.75
2022-12-28T04:18:33.268Z,8.10
2022-12-28T04:21:00.573Z,7.53
2022-12-28T04:23:27.766Z,7.85
2022-12-28T04:26:02.651Z,8.60
2022-12-28T04:28:30.220Z,7.03
2022-12-28T04:30:57.908Z,7.63
2022-12-28T04:33:25.477Z,7.68
2022-12-28T04:35:54.090Z,8.02
2022-12-28T04:38:21.355Z,7.43
2022-12-28T04:40:47.985Z,7.20
2022-12-28T04:43:14.661Z,7.40
2022-12-28T04:45:41.304Z,7.63
2022-12-28T04:48:07.969Z,7.68
2022-12-28T04:50:36.349Z,7.18
2022-12-28T04:53:02.989Z,8.27
2022-12-28T04:55:32.452Z,8.02
2022-12-28T04:58:00.661Z,7.35
2022-12-28T05:00:27.609Z,7.55
2022-12-28T05:02:54.359Z,7.50
2022-12-28T05:05:21.038Z,8.25
2022-12-28T05:07:47.713Z,7.80
2022-12-28T05:10:14.467Z,8.57
2022-12-28T05:12:41.144Z,7.22
2022-12-28T05:15:08.112Z,7.43
2022-12-28T05:17:34.742Z,7.75
2022-12-28T05:20:01.383Z,7.07
2022-12-28T05:22:28.282Z,7.35
2022-12-28T05:24:55.477Z,6.60
2022-12-28T05:27:22.103Z,7.03
2022-12-28T05:29:48.833Z,7.45
2022-12-28T05:32:15.936Z,7.13
2022-12-28T05:34:42.586Z,7.07
2022-12-28T05:37:09.219Z,8.10
2022-12-28T05:39:39.080Z,7.20
2022-12-28T05:42:05.932Z,7.18
2022-12-28T05:44:32.686Z,7.57
2022-12-28T05:46:59.373Z,7.40
2022-12-28T05:49:26.029Z,7.85
2022-12-28T05:51:52.706Z,7.75
2022-12-28T05:54:19.981Z,9.18
2022-12-28T05:56:49.594Z,8.98
2022-12-28T05:59:16.281Z,8.45
2022-12-28T06:01:44.271Z,7.43
2022-12-28T06:04:16.989Z,9.07
2022-12-28T06:06:44.847Z,8.43
2022-12-28T06:09:12.429Z,8.40
2022-12-28T06:11:39.508Z,9.45
2022-12-28T06:14:06.601Z,8.52
2022-12-28T06:16:36.062Z,9.80
2022-12-28T06:19:05.940Z,7.97
2022-12-28T06:21:34.613Z,8.15
2022-12-28T06:24:02.911Z,7.88
2022-12-28T06:26:31.324Z,8.52
2022-12-28T06:28:58.827Z,8.45
2022-12-28T06:31:28.264Z,9.20
2022-12-28T06:33:58.428Z,8.52
2022-12-28T06:36:28.161Z,8.98
2022-12-28T06:38:57.174Z,9.20
2022-12-28T06:41:25.041Z,8.70
2022-12-28T06:43:52.285Z,8.00
2022-12-28T06:46:20.808Z,9.55
2022-12-28T06:48:47.764Z,9.05
2022-12-28T06:51:17.954Z,9.88
2022-12-28T06:53:46.824Z,8.60
2022-12-28T06:56:20.068Z,9.75
2022-12-28T06:58:48.566Z,10.50
2022-12-28T07:01:20.454Z,10.35
2022-12-28T07:03:49.840Z,9.63
2022-12-28T07:06:18.744Z,10.27
2022-12-28T07:08:46.116Z,9.82
2022-12-28T07:11:16.062Z,10.05
2022-12-28T07:13:43.246Z,9.13
2022-12-28T07:16:14.334Z,9.70
2022-12-28T07:18:42.141Z,9.95
2022-12-28T07:21:12.488Z,9.57
2022-12-28T07:23:39.171Z,8.80
2022-12-28T07:26:14.337Z,9.35
2022-12-28T07:28:43.924Z,9.35
2022-12-28T07:31:14.862Z,10.48
2022-12-28T07:33:41.979Z,9.93
2022-12-28T07:36:11.456Z,10.10
2022-12-28T07:38:38.837Z,10.00
2022-12-28T07:41:08.522Z,11.55
2022-12-28T07:43:35.692Z,10.05
2022-12-28T07:46:05.488Z,10.10
2022-12-28T07:48:33.413Z,11.20
2022-12-28T07:51:10.603Z,10.27
2022-12-28T07:53:39.020Z,11.27
2022-12-28T07:56:06.732Z,10.93
2022-12-28T07:58:33.764Z,12.13
2022-12-28T08:01:11.271Z,11.05
2022-12-28T08:03:40.612Z,11.00
2022-12-28T08:06:11.079Z,11.35
2022-12-28T08:08:39.532Z,11.48
2022-12-28T08:11:08.837Z,10.52
2022-12-28T08:13:37.850Z,10.73
2022-12-28T08:16:05.744Z,10.60
2022-12-28T08:18:33.728Z,10.57
2022-12-28T08:21:02.831Z,9.40
2022-12-28T08:23:30.627Z,9.27
2022-12-28T08:26:04.569Z,8.40
2022-12-28T08:28:31.181Z,8.23
2022-12-28T08:30:57.792Z,8.45
2022-12-28T08:33:24.679Z,8.45
2022-12-28T08:35:51.311Z,8.80
2022-12-28T08:38:17.923Z,8.40
2022-12-28T08:40:44.571Z,8.65
2022-12-28T08:43:11.175Z,9.02
2022-12-28T08:45:37.826Z,9.65
2022-12-28T08:48:04.841Z,10.27
2022-12-28T08:50:33.203Z,10.20
2022-12-28T08:52:59.881Z,9.35
2022-12-28T08:55:26.617Z,8.98
2022-12-28T08:57:53.284Z,9.63
2022-12-28T09:00:19.977Z,10.65
2022-12-28T09:02:46.738Z,10.45
2022-12-28T09:05:13.413Z,9.88
2022-12-28T09:07:40.012Z,11.50
2022-12-28T09:10:07.442Z,12.55
2022-12-28T09:12:37.298Z,13.00
2022-12-28T09:15:04.271Z,13.85
2022-12-28T09:17:30.866Z,12.55
2022-12-28T09:19:57.483Z,12.27
2022-12-28T09:22:24.139Z,11.93
2022-12-28T09:24:50.740Z,13.25
2022-12-28T09:27:17.379Z,14.88
2022-12-28T09:29:43.975Z,13.60
2022-12-28T09:32:10.577Z,13.55
2022-12-28T09:34:38.308Z,13.82
2022-12-28T09:37:07.056Z,14.75
2022-12-28T09:39:33.746Z,14.52
2022-12-28T09:42:14.741Z,16.45
2022-12-28T09:44:42.360Z,16.02
2022-12-28T09:47:25.381Z,14.85
2022-12-28T09:50:25.083Z,15.25
2022-12-28T09:52:59.053Z,15.70
2022-12-28T09:55:27.419Z,16.20
2022-12-28T09:57:57.376Z,15.25
2022-12-28T10:00:28.768Z,15.95
2022-12-28T10:03:00.704Z,14.65
2022-12-28T10:05:27.971Z,15.43
2022-12-28T10:08:04.762Z,15.38
2022-12-28T10:10:31.881Z,15.23
2022-12-28T10:13:37.062Z,14.35
2022-12-28T10:15:59.814Z,13.27
2022-12-28T10:18:28.296Z,14.88
2022-12-28T10:20:55.774Z,13.90
2022-12-28T10:23:27.739Z,16.27
2022-12-28T10:25:56.624Z,18.83
2022-12-28T10:28:28.514Z,17.05
2022-12-28T10:31:06.318Z,17.30
2022-12-28T10:33:33.254Z,15.95
2022-12-28T10:36:00.372Z,15.80
2022-12-28T10:38:31.631Z,15.13
2022-12-28T10:41:00.665Z,13.30
2022-12-28T10:43:32.742Z,9.77
2022-12-28T10:46:01.947Z,6.75
2022-12-28T10:48:32.979Z,7.18
2022-12-28T10:51:00.592Z,6.80
2022-12-28T10:53:33.061Z,7.97
2022-12-28T10:56:15.024Z,6.32
2022-12-28T10:58:46.124Z,6.00
2022-12-28T11:01:18.040Z,5.93
2022-12-28T11:04:01.195Z,5.93
2022-12-28T11:06:30.547Z,4.90
2022-12-28T11:09:14.051Z,5.28
2022-12-28T11:11:42.433Z,5.00
2022-12-28T11:14:34.007Z,5.53
2022-12-28T11:17:20.388Z,5.03
2022-12-28T11:19:49.972Z,5.38
2022-12-28T11:22:23.557Z,4.82
2022-12-28T11:24:50.547Z,5.25
2022-12-28T11:27:19.656Z,4.32
2022-12-28T11:29:50.493Z,3.15
2022-12-28T11:32:27.765Z,4.70
2022-12-28T11:34:56.379Z,4.78
2022-12-28T11:37:23.426Z,5.13
2022-12-28T11:39:52.186Z,5.53
2022-12-28T11:42:40.504Z,5.35
2022-12-28T11:45:35.723Z,5.38
2022-12-28T11:48:32.926Z,4.57
2022-12-28T11:51:05.608Z,5.45
2022-12-28T11:53:32.207Z,5.28
2022-12-28T11:56:07.938Z,5.40
2022-12-28T11:58:44.731Z,5.22
2022-12-28T12:01:33.591Z,4.30
2022-12-28T12:04:00.341Z,5.75
2022-12-28T12:06:42.517Z,5.07
2022-12-28T12:09:24.475Z,5.70
2022-12-28T12:11:52.032Z,5.57
2022-12-28T12:14:23.953Z,5.53
2022-12-28T12:16:54.042Z,4.60
2022-12-28T12:19:28.909Z,4.57
2022-12-28T12:22:22.387Z,4.43
2022-12-28T12:24:54.454Z,3.78
2022-12-28T12:27:36.688Z,4.25
2022-12-28T12:30:07.977Z,4.45
2022-12-28T12:32:44.024Z,4.10
2022-12-28T12:35:16.603Z,3.95
2022-12-28T12:38:05.100Z,3.80
2022-12-28T12:40:47.083Z,4.22
2022-12-28T12:43:29.503Z,4.53
2022-12-28T12:46:26.629Z,4.05
2022-12-28T12:49:07.363Z,3.95
2022-12-28T12:51:34.984Z,3.90
2022-12-28T12:54:32.297Z,4.72
2022-12-28T12:57:14.303Z,6.05
2022-12-28T12:59:41.945Z,6.28
2022-12-28T13:02:39.215Z,4.90
2022-12-28T13:10:03.557Z,6.60
2022-12-28T13:12:30.470Z,6.65
2022-12-28T13:15:05.951Z,6.75
2022-12-28T13:17:35.906Z,6.72
2022-12-28T13:20:19.482Z,6.65
2022-12-28T13:22:48.848Z,6.53
2022-12-28T13:25:32.159Z,6.40
2022-12-28T13:28:01.571Z,5.82
2022-12-28T13:30:30.098Z,6.00
2022-12-28T13:32:59.643Z,6.53
2022-12-28T13:35:29.813Z,7.47
2022-12-28T13:38:13.701Z,7.30
2022-12-28T13:40:41.457Z,6.40
2022-12-28T13:43:41.749Z,6.90
2022-12-28T13:46:15.074Z,7.20
2022-12-28T13:48:47.492Z,7.95
2022-12-28T13:51:17.573Z,6.97
2022-12-28T13:53:49.555Z,6.28
2022-12-28T13:56:17.484Z,7.30
2022-12-28T13:58:50.837Z,6.65
2022-12-28T14:01:24.313Z,6.47
2022-12-28T14:04:08.832Z,7.10
2022-12-28T14:06:46.571Z,6.80
2022-12-28T14:09:14.888Z,6.45
2022-12-28T14:11:43.729Z,6.40
2022-12-28T14:14:12.574Z,5.97
2022-12-28T14:16:40.397Z,6.00
2022-12-28T14:19:07.803Z,5.80
2022-12-28T14:21:44.252Z,5.97
2022-12-28T14:24:14.507Z,6.20
2022-12-28T14:26:48.782Z,6.03
2022-12-28T14:29:24.116Z,4.90
2022-12-28T14:31:57.624Z,4.83
2022-12-28T14:34:29.240Z,5.70
2022-12-28T14:36:57.237Z,4.70
2022-12-28T14:39:34.929Z,4.88
2022-12-28T14:42:04.125Z,5.03
2022-12-28T14:44:30.792Z,5.00
2022-12-28T14:46:59.584Z,4.68
2022-12-28T14:49:36.972Z,4.57
2022-12-28T14:52:38.858Z,4.35
2022-12-28T14:55:21.416Z,4.32
2022-12-28T14:57:51.030Z,5.82
2022-12-28T15:00:28.963Z,4.88
2022-12-28T15:02:57.030Z,5.60
2022-12-28T15:05:39.078Z,5.40
2022-12-28T15:08:06.436Z,4.97
2022-12-28T15:10:37.901Z,5.20
2022-12-28T15:13:04.689Z,5.60
2022-12-28T15:15:31.566Z,5.72
2022-12-28T15:17:58.247Z,6.82
2022-12-28T15:20:24.954Z,7.47
2022-12-28T15:22:53.101Z,7.50
2022-12-28T15:25:19.751Z,7.88
2022-12-28T15:27:49.980Z,8.00
2022-12-28T15:30:20.570Z,7.15
2022-12-28T15:32:50.612Z,6.85
2022-12-28T15:35:17.289Z,6.75
2022-12-28T15:37:44.028Z,6.97
2022-12-28T15:40:11.718Z,7.32
2022-12-28T15:42:40.830Z,7.28
2022-12-28T15:45:09.101Z,7.72
2022-12-28T15:47:35.996Z,7.70
2022-12-28T15:50:03.611Z,8.30
2022-12-28T15:52:31.787Z,8.18
